sensor_id;sensor_type;location;lat;lon;timestamp;pressure;altitude;pressure_sealevel;temperature;humidity
74542;BME280;63015;45.378;20.360;2023-04-03T00:02:00;100334.19;;;9.82;77.33
74542;BME280;63015;45.378;20.360;2023-04-03T00:04:01;100341.13;;;9.69;78.68
74542;BME280;63015;45.378;20.360;2023-04-03T00:06:02;100335.94;;;9.76;78.17
74542;BME280;63015;45.378;20.360;2023-04-03T00:08:03;100336.81;;;9.78;77.79
74542;BME280;63015;45.378;20.360;2023-04-03T00:10:05;100335.06;;;9.75;78.32
74542;BME280;63015;45.378;20.360;2023-04-03T00:12:05;100335.91;;;9.66;78.83
74542;BME280;63015;45.378;20.360;2023-04-03T00:14:06;100334.19;;;9.75;78.29
74542;BME280;63015;45.378;20.360;2023-04-03T00:16:08;100331.56;;;9.76;78.38
74542;BME280;63015;45.378;20.360;2023-04-03T00:18:09;100332.44;;;9.72;78.86
74542;BME280;63015;45.378;20.360;2023-04-03T00:20:10;100336.78;;;9.71;78.88
74542;BME280;63015;45.378;20.360;2023-04-03T00:22:10;100330.72;;;9.69;78.83
74542;BME280;63015;45.378;20.360;2023-04-03T00:24:11;100335.06;;;9.70;78.57
74542;BME280;63015;45.378;20.360;2023-04-03T00:26:11;100332.44;;;9.55;79.38
74542;BME280;63015;45.378;20.360;2023-04-03T00:28:14;100332.41;;;9.58;78.89
74542;BME280;63015;45.378;20.360;2023-04-03T00:30:17;100336.75;;;9.48;79.71
74542;BME280;63015;45.378;20.360;2023-04-03T00:32:18;100339.34;;;9.53;79.42
74542;BME280;63015;45.378;20.360;2023-04-03T00:34:18;100335.00;;;9.40;80.05
74542;BME280;63015;45.378;20.360;2023-04-03T00:36:20;100331.53;;;9.45;79.77
74542;BME280;63015;45.378;20.360;2023-04-03T00:38:20;100333.22;;;9.32;80.45
74542;BME280;63015;45.378;20.360;2023-04-03T00:40:23;100344.50;;;9.37;80.10
74542;BME280;63015;45.378;20.360;2023-04-03T00:42:24;100340.19;;;9.38;79.97
74542;BME280;63015;45.378;20.360;2023-04-03T00:46:28;100343.66;;;9.35;80.12
74542;BME280;63015;45.378;20.360;2023-04-03T00:48:39;100345.38;;;9.43;79.39
74542;BME280;63015;45.378;20.360;2023-04-03T00:50:42;100347.16;;;9.48;79.24
74542;BME280;63015;45.378;20.360;2023-04-03T00:52:43;100340.22;;;9.46;79.07
74542;BME280;63015;45.378;20.360;2023-04-03T00:54:48;100346.28;;;9.54;78.61
74542;BME280;63015;45.378;20.360;2023-04-03T00:56:51;100345.41;;;9.50;78.87
74542;BME280;63015;45.378;20.360;2023-04-03T00:58:59;100360.16;;;9.51;78.99
74542;BME280;63015;45.378;20.360;2023-04-03T01:01:05;100347.16;;;9.47;79.34
74542;BME280;63015;45.378;20.360;2023-04-03T01:03:06;100348.91;;;9.49;79.51
74542;BME280;63015;45.378;20.360;2023-04-03T01:05:09;100351.50;;;9.51;79.64
74542;BME280;63015;45.378;20.360;2023-04-03T01:07:23;100353.22;;;9.47;80.65
74542;BME280;63015;45.378;20.360;2023-04-03T01:09:24;100358.47;;;9.63;79.18
74542;BME280;63015;45.378;20.360;2023-04-03T01:11:24;100361.06;;;9.69;78.76
74542;BME280;63015;45.378;20.360;2023-04-03T01:13:29;100350.66;;;9.70;79.12
74542;BME280;63015;45.378;20.360;2023-04-03T01:15:31;100355.84;;;9.52;80.42
74542;BME280;63015;45.378;20.360;2023-04-03T01:18:09;100358.44;;;9.64;79.85
74542;BME280;63015;45.378;20.360;2023-04-03T01:22:19;100356.72;;;9.66;80.08
74542;BME280;63015;45.378;20.360;2023-04-03T01:24:36;100363.66;;;9.74;79.40
74542;BME280;63015;45.378;20.360;2023-04-03T01:26:41;100361.94;;;9.71;79.63
74542;BME280;63015;45.378;20.360;2023-04-03T01:28:42;100365.41;;;9.70;80.18
74542;BME280;63015;45.378;20.360;2023-04-03T01:32:43;100363.66;;;9.66;79.40
74542;BME280;63015;45.378;20.360;2023-04-03T01:34:44;100366.25;;;9.63;78.96
74542;BME280;63015;45.378;20.360;2023-04-03T01:36:45;100359.34;;;9.68;78.63
74542;BME280;63015;45.378;20.360;2023-04-03T01:38:45;100375.81;;;9.70;78.25
74542;BME280;63015;45.378;20.360;2023-04-03T01:40:46;100367.16;;;9.76;77.91
74542;BME280;63015;45.378;20.360;2023-04-03T01:42:47;100376.66;;;9.61;77.73
74542;BME280;63015;45.378;20.360;2023-04-03T01:44:47;100374.94;;;9.57;77.28
74542;BME280;63015;45.378;20.360;2023-04-03T01:46:48;100366.25;;;9.57;77.19
74542;BME280;63015;45.378;20.360;2023-04-03T01:48:49;100366.25;;;9.55;76.59
74542;BME280;63015;45.378;20.360;2023-04-03T01:50:50;100375.78;;;9.54;76.24
74542;BME280;63015;45.378;20.360;2023-04-03T01:52:52;100374.03;;;9.44;76.31
74542;BME280;63015;45.378;20.360;2023-04-03T01:54:53;100379.19;;;9.43;76.14
74542;BME280;63015;45.378;20.360;2023-04-03T01:56:53;100372.19;;;9.12;75.91
74542;BME280;63015;45.378;20.360;2023-04-03T01:58:55;100375.63;;;9.10;76.79
74542;BME280;63015;45.378;20.360;2023-04-03T02:00:56;100383.41;;;9.00;76.51
74542;BME280;63015;45.378;20.360;2023-04-03T02:02:56;100379.00;;;8.93;76.76
74542;BME280;63015;45.378;20.360;2023-04-03T02:04:57;100378.97;;;8.88;77.11
74542;BME280;63015;45.378;20.360;2023-04-03T02:06:58;100380.72;;;8.91;77.11
74542;BME280;63015;45.378;20.360;2023-04-03T02:08:59;100381.56;;;8.84;77.31
74542;BME280;63015;45.378;20.360;2023-04-03T02:10:59;100385.16;;;9.06;76.66
74542;BME280;63015;45.378;20.360;2023-04-03T02:13:00;100387.72;;;9.01;77.14
74542;BME280;63015;45.378;20.360;2023-04-03T02:15:00;100388.66;;;9.17;76.38
74542;BME280;63015;45.378;20.360;2023-04-03T02:17:01;100389.41;;;8.92;77.48
74542;BME280;63015;45.378;20.360;2023-04-03T02:19:05;100386.00;;;9.05;76.86
74542;BME280;63015;45.378;20.360;2023-04-03T02:21:06;100383.31;;;8.85;77.16
74542;BME280;63015;45.378;20.360;2023-04-03T02:23:06;100390.31;;;8.98;76.91
74542;BME280;63015;45.378;20.360;2023-04-03T02:25:07;100383.25;;;8.76;77.22
74542;BME280;63015;45.378;20.360;2023-04-03T02:27:08;100388.47;;;8.80;77.43
74542;BME280;63015;45.378;20.360;2023-04-03T02:29:09;100387.66;;;8.87;77.14
74542;BME280;63015;45.378;20.360;2023-04-03T02:31:10;100386.63;;;8.64;77.86
74542;BME280;63015;45.378;20.360;2023-04-03T02:33:11;100399.78;;;8.88;76.91
74542;BME280;63015;45.378;20.360;2023-04-03T02:35:13;100402.25;;;8.68;77.63
74542;BME280;63015;45.378;20.360;2023-04-03T02:37:14;100402.31;;;8.75;77.69
74542;BME280;63015;45.378;20.360;2023-04-03T02:39:16;100404.78;;;8.56;76.66
74542;BME280;63015;45.378;20.360;2023-04-03T02:41:18;100395.22;;;8.50;76.29
74542;BME280;63015;45.378;20.360;2023-04-03T02:43:19;100402.75;;;8.22;76.50
74542;BME280;63015;45.378;20.360;2023-04-03T02:45:19;100400.16;;;8.24;76.63
74542;BME280;63015;45.378;20.360;2023-04-03T02:47:20;100401.88;;;8.20;76.88
74542;BME280;63015;45.378;20.360;2023-04-03T02:49:22;100408.13;;;8.43;76.32
74542;BME280;63015;45.378;20.360;2023-04-03T02:51:22;100412.50;;;8.48;76.28
74542;BME280;63015;45.378;20.360;2023-04-03T02:53:23;100403.59;;;8.18;77.34
74542;BME280;63015;45.378;20.360;2023-04-03T02:55:24;100406.25;;;8.26;77.35
74542;BME280;63015;45.378;20.360;2023-04-03T02:57:28;100406.25;;;8.26;77.82
74542;BME280;63015;45.378;20.360;2023-04-03T02:59:29;100407.75;;;8.01;78.74
74542;BME280;63015;45.378;20.360;2023-04-03T03:01:30;100401.00;;;8.20;78.52
74542;BME280;63015;45.378;20.360;2023-04-03T03:03:32;100400.88;;;8.06;78.66
74542;BME280;63015;45.378;20.360;2023-04-03T03:05:33;100398.25;;;8.03;78.72
74542;BME280;63015;45.378;20.360;2023-04-03T03:07:33;100407.59;;;7.87;78.98
74542;BME280;63015;45.378;20.360;2023-04-03T03:09:34;100410.31;;;7.98;78.08
74542;BME280;63015;45.378;20.360;2023-04-03T03:11:35;100409.63;;;8.14;77.50
74542;BME280;63015;45.378;20.360;2023-04-03T03:13:37;100419.00;;;8.01;77.30
74542;BME280;63015;45.378;20.360;2023-04-03T03:15:37;100427.72;;;8.10;77.03
74542;BME280;63015;45.378;20.360;2023-04-03T03:17:38;100425.13;;;8.11;76.36
74542;BME280;63015;45.378;20.360;2023-04-03T03:19:38;100427.63;;;7.99;76.02
74542;BME280;63015;45.378;20.360;2023-04-03T03:21:39;100430.13;;;7.89;76.34
74542;BME280;63015;45.378;20.360;2023-04-03T03:23:40;100437.81;;;7.82;76.82
74542;BME280;63015;45.378;20.360;2023-04-03T03:25:40;100432.72;;;7.89;76.46
74542;BME280;63015;45.378;20.360;2023-04-03T03:27:41;100435.44;;;8.02;75.97
74542;BME280;63015;45.378;20.360;2023-04-03T03:29:42;100437.19;;;8.01;75.97
74542;BME280;63015;45.378;20.360;2023-04-03T03:31:44;100435.38;;;7.96;75.87
74542;BME280;63015;45.378;20.360;2023-04-03T03:33:45;100432.72;;;7.89;76.14
74542;BME280;63015;45.378;20.360;2023-04-03T03:35:45;100432.84;;;7.99;76.06
74542;BME280;63015;45.378;20.360;2023-04-03T03:37:46;100434.44;;;7.86;76.71
74542;BME280;63015;45.378;20.360;2023-04-03T03:39:46;100431.19;;;8.09;75.98
74542;BME280;63015;45.378;20.360;2023-04-03T03:41:47;100432.94;;;8.11;76.17
74542;BME280;63015;45.378;20.360;2023-04-03T03:43:50;100437.19;;;8.04;76.82
74542;BME280;63015;45.378;20.360;2023-04-03T03:45:52;100438.09;;;8.06;76.54
74542;BME280;63015;45.378;20.360;2023-04-03T03:47:53;100437.91;;;7.88;76.73
74542;BME280;63015;45.378;20.360;2023-04-03T03:49:54;100433.47;;;7.78;77.67
74542;BME280;63015;45.378;20.360;2023-04-03T03:51:54;100434.97;;;7.58;78.21
74542;BME280;63015;45.378;20.360;2023-04-03T03:53:55;100443.84;;;7.78;77.74
74542;BME280;63015;45.378;20.360;2023-04-03T03:55:56;100435.03;;;7.60;78.25
74542;BME280;63015;45.378;20.360;2023-04-03T03:57:59;100435.09;;;7.68;78.07
74542;BME280;63015;45.378;20.360;2023-04-03T04:00:03;100435.84;;;7.57;78.09
74542;BME280;63015;45.378;20.360;2023-04-03T04:02:04;100436.72;;;7.58;77.30
74542;BME280;63015;45.378;20.360;2023-04-03T04:04:05;100430.69;;;7.61;76.64
74542;BME280;63015;45.378;20.360;2023-04-03T04:06:06;100438.28;;;7.45;76.38
74542;BME280;63015;45.378;20.360;2023-04-03T04:08:06;100440.72;;;7.33;76.15
74542;BME280;63015;45.378;20.360;2023-04-03T04:10:08;100444.31;;;7.43;75.85
74542;BME280;63015;45.378;20.360;2023-04-03T04:12:09;100446.72;;;7.29;75.50
74542;BME280;63015;45.378;20.360;2023-04-03T04:14:11;100449.94;;;7.09;75.94
74542;BME280;63015;45.378;20.360;2023-04-03T04:16:14;100445.50;;;7.02;75.94
74542;BME280;63015;45.378;20.360;2023-04-03T04:18:14;100447.53;;;7.24;75.86
74542;BME280;63015;45.378;20.360;2023-04-03T04:20:17;100459.78;;;7.38;75.31
74542;BME280;63015;45.378;20.360;2023-04-03T04:22:18;100456.31;;;7.34;75.74
74542;BME280;63015;45.378;20.360;2023-04-03T04:24:18;100458.19;;;7.48;75.85
74542;BME280;63015;45.378;20.360;2023-04-03T04:26:20;100458.28;;;7.52;75.81
74542;BME280;63015;45.378;20.360;2023-04-03T04:28:21;100460.66;;;7.37;76.20
74542;BME280;63015;45.378;20.360;2023-04-03T04:30:25;100458.72;;;7.20;76.03
74542;BME280;63015;45.378;20.360;2023-04-03T04:32:27;100463.22;;;7.34;76.25
74542;BME280;63015;45.378;20.360;2023-04-03T04:34:28;100458.97;;;7.40;75.78
74542;BME280;63015;45.378;20.360;2023-04-03T04:36:29;100460.69;;;7.38;75.44
74542;BME280;63015;45.378;20.360;2023-04-03T04:38:29;100450.97;;;7.23;75.53
74542;BME280;63015;45.378;20.360;2023-04-03T04:40:31;100460.31;;;7.12;75.47
74542;BME280;63015;45.378;20.360;2023-04-03T04:42:32;100467.50;;;6.70;74.79
74542;BME280;63015;45.378;20.360;2023-04-03T04:44:33;100458.13;;;6.79;74.69
74542;BME280;63015;45.378;20.360;2023-04-03T04:46:34;100465.75;;;6.69;74.19
74542;BME280;63015;45.378;20.360;2023-04-03T04:48:36;100475.94;;;6.58;74.62
74542;BME280;63015;45.378;20.360;2023-04-03T04:50:37;100472.81;;;6.80;74.36
74542;BME280;63015;45.378;20.360;2023-04-03T04:52:38;100484.00;;;6.77;74.23
74542;BME280;63015;45.378;20.360;2023-04-03T04:54:40;100481.31;;;6.71;74.79
74542;BME280;63015;45.378;20.360;2023-04-03T04:56:41;100483.03;;;6.69;74.95
74542;BME280;63015;45.378;20.360;2023-04-03T04:58:42;100489.38;;;6.88;74.71
74542;BME280;63015;45.378;20.360;2023-04-03T05:00:42;100486.72;;;6.86;74.22
74542;BME280;63015;45.378;20.360;2023-04-03T05:02:44;100492.72;;;6.84;74.02
74542;BME280;63015;45.378;20.360;2023-04-03T05:04:45;100490.03;;;6.76;74.38
74542;BME280;63015;45.378;20.360;2023-04-03T05:06:52;100492.84;;;6.90;73.97
74542;BME280;63015;45.378;20.360;2023-04-03T05:08:57;100497.88;;;6.81;74.43
74542;BME280;63015;45.378;20.360;2023-04-03T05:10:58;100499.63;;;6.82;73.68
74542;BME280;63015;45.378;20.360;2023-04-03T05:13:01;100496.19;;;6.83;73.40
74542;BME280;63015;45.378;20.360;2023-04-03T05:15:02;100502.44;;;6.96;73.08
74542;BME280;63015;45.378;20.360;2023-04-03T05:17:04;100507.94;;;6.62;72.36
74542;BME280;63015;45.378;20.360;2023-04-03T05:19:08;100501.31;;;6.81;71.68
74542;BME280;63015;45.378;20.360;2023-04-03T05:21:09;100515.72;;;6.62;71.52
74542;BME280;63015;45.378;20.360;2023-04-03T05:23:10;100517.53;;;6.68;72.04
74542;BME280;63015;45.378;20.360;2023-04-03T05:25:11;100512.19;;;6.58;71.45
74542;BME280;63015;45.378;20.360;2023-04-03T05:27:15;100518.25;;;6.61;71.77
74542;BME280;63015;45.378;20.360;2023-04-03T05:29:21;100517.56;;;6.71;71.44
74542;BME280;63015;45.378;20.360;2023-04-03T05:31:22;100520.91;;;6.62;71.72
74542;BME280;63015;45.378;20.360;2023-04-03T05:33:24;100509.03;;;6.77;71.31
74542;BME280;63015;45.378;20.360;2023-04-03T05:35:27;100512.09;;;6.52;71.11
74542;BME280;63015;45.378;20.360;2023-04-03T05:37:31;100523.41;;;6.59;71.57
74542;BME280;63015;45.378;20.360;2023-04-03T05:39:32;100524.59;;;6.78;71.33
74542;BME280;63015;45.378;20.360;2023-04-03T05:41:35;100509.78;;;6.71;71.29
74542;BME280;63015;45.378;20.360;2023-04-03T05:43:36;100519.53;;;6.86;71.21
74542;BME280;63015;45.378;20.360;2023-04-03T05:45:39;100526.22;;;6.70;71.04
74542;BME280;63015;45.378;20.360;2023-04-03T05:47:40;100519.28;;;6.69;71.21
74542;BME280;63015;45.378;20.360;2023-04-03T05:49:41;100509.59;;;6.58;71.08
74542;BME280;63015;45.378;20.360;2023-04-03T05:51:43;100513.81;;;6.52;70.88
74542;BME280;63015;45.378;20.360;2023-04-03T05:54:16;100511.25;;;6.53;70.84
74542;BME280;63015;45.378;20.360;2023-04-03T05:56:18;100517.41;;;6.60;71.00
74542;BME280;63015;45.378;20.360;2023-04-03T05:58:19;100521.47;;;6.46;70.77
74542;BME280;63015;45.378;20.360;2023-04-03T06:00:21;100520.78;;;6.54;70.77
74542;BME280;63015;45.378;20.360;2023-04-03T06:02:30;100523.28;;;6.51;70.89
74542;BME280;63015;45.378;20.360;2023-04-03T06:04:32;100525.38;;;6.72;70.47
74542;BME280;63015;45.378;20.360;2023-04-03T06:07:02;100526.84;;;6.58;70.11
74542;BME280;63015;45.378;20.360;2023-04-03T06:09:02;100522.66;;;6.65;69.89
74542;BME280;63015;45.378;20.360;2023-04-03T06:11:03;100522.00;;;6.77;70.28
74542;BME280;63015;45.378;20.360;2023-04-03T06:13:04;100520.34;;;6.80;70.01
74542;BME280;63015;45.378;20.360;2023-04-03T06:15:05;100527.16;;;6.75;69.53
74542;BME280;63015;45.378;20.360;2023-04-03T06:17:07;100530.38;;;6.63;69.21
74542;BME280;63015;45.378;20.360;2023-04-03T06:19:10;100530.56;;;6.72;69.08
74542;BME280;63015;45.378;20.360;2023-04-03T06:21:14;100524.38;;;6.66;68.75
74542;BME280;63015;45.378;20.360;2023-04-03T06:23:14;100530.47;;;6.66;68.70
74542;BME280;63015;45.378;20.360;2023-04-03T06:25:15;100543.59;;;6.79;68.88
74542;BME280;63015;45.378;20.360;2023-04-03T06:27:17;100545.97;;;6.65;68.17
74542;BME280;63015;45.378;20.360;2023-04-03T06:29:19;100549.72;;;6.84;67.94
74542;BME280;63015;45.378;20.360;2023-04-03T06:31:20;100545.31;;;6.78;67.54
74542;BME280;63015;45.378;20.360;2023-04-03T06:33:28;100548.06;;;6.89;67.69
74542;BME280;63015;45.378;20.360;2023-04-03T06:35:28;100544.00;;;7.03;67.68
74542;BME280;63015;45.378;20.360;2023-04-03T06:37:32;100545.72;;;7.03;66.56
74542;BME280;63015;45.378;20.360;2023-04-03T06:39:33;100548.38;;;7.06;66.65
74542;BME280;63015;45.378;20.360;2023-04-03T06:41:33;100549.03;;;6.94;66.20
74542;BME280;63015;45.378;20.360;2023-04-03T06:43:36;100552.41;;;6.90;66.55
74542;BME280;63015;45.378;20.360;2023-04-03T06:45:36;100555.78;;;6.83;66.30
74542;BME280;63015;45.378;20.360;2023-04-03T06:47:37;100566.16;;;6.84;66.69
74542;BME280;63015;45.378;20.360;2023-04-03T06:49:37;100562.66;;;6.84;66.22
74542;BME280;63015;45.378;20.360;2023-04-03T06:51:38;100563.59;;;6.86;66.59
74542;BME280;63015;45.378;20.360;2023-04-03T06:53:38;100567.38;;;7.08;66.21
74542;BME280;63015;45.378;20.360;2023-04-03T06:55:39;100558.91;;;7.20;66.53
74542;BME280;63015;45.378;20.360;2023-04-03T06:57:40;100573.00;;;7.37;66.12
74542;BME280;63015;45.378;20.360;2023-04-03T06:59:40;100579.66;;;7.20;65.50
74542;BME280;63015;45.378;20.360;2023-04-03T07:01:41;100577.75;;;7.10;66.06
74542;BME280;63015;45.378;20.360;2023-04-03T07:03:42;100577.94;;;7.20;66.34
74542;BME280;63015;45.378;20.360;2023-04-03T07:05:42;100569.34;;;7.21;66.47
74542;BME280;63015;45.378;20.360;2023-04-03T07:07:44;100576.06;;;7.10;65.95
74542;BME280;63015;45.378;20.360;2023-04-03T07:09:45;100590.94;;;7.23;66.38
74542;BME280;63015;45.378;20.360;2023-04-03T07:11:48;100583.41;;;7.40;67.03
74542;BME280;63015;45.378;20.360;2023-04-03T07:13:49;100592.72;;;7.26;66.83
74542;BME280;63015;45.378;20.360;2023-04-03T07:15:49;100593.06;;;7.49;66.78
74542;BME280;63015;45.378;20.360;2023-04-03T07:17:50;100598.56;;;7.72;66.69
74542;BME280;63015;45.378;20.360;2023-04-03T07:19:51;100595.94;;;7.71;66.87
74542;BME280;63015;45.378;20.360;2023-04-03T07:21:51;100595.25;;;7.83;65.31
74542;BME280;63015;45.378;20.360;2023-04-03T07:23:52;100603.63;;;7.62;65.58
74542;BME280;63015;45.378;20.360;2023-04-03T07:25:53;100609.00;;;7.77;65.86
74542;BME280;63015;45.378;20.360;2023-04-03T07:27:54;100608.09;;;7.72;65.13
74542;BME280;63015;45.378;20.360;2023-04-03T07:29:55;100616.06;;;7.86;65.99
74542;BME280;63015;45.378;20.360;2023-04-03T07:31:56;100609.13;;;7.85;65.60
74542;BME280;63015;45.378;20.360;2023-04-03T07:33:57;100612.25;;;7.61;64.59
74542;BME280;63015;45.378;20.360;2023-04-03T07:35:58;100615.31;;;7.95;65.26
74542;BME280;63015;45.378;20.360;2023-04-03T07:37:58;100612.47;;;7.76;65.16
74542;BME280;63015;45.378;20.360;2023-04-03T07:39:59;100612.47;;;7.79;64.81
74542;BME280;63015;45.378;20.360;2023-04-03T07:42:00;100616.78;;;7.76;63.24
74542;BME280;63015;45.378;20.360;2023-04-03T07:44:01;100614.44;;;7.96;63.99
74542;BME280;63015;45.378;20.360;2023-04-03T07:46:01;100622.31;;;8.03;63.00
74542;BME280;63015;45.378;20.360;2023-04-03T07:48:05;100617.09;;;8.00;62.70
74542;BME280;63015;45.378;20.360;2023-04-03T07:50:07;100623.41;;;8.19;63.19
74542;BME280;63015;45.378;20.360;2023-04-03T07:52:07;100627.94;;;8.36;62.37
74542;BME280;63015;45.378;20.360;2023-04-03T07:54:09;100625.47;;;8.47;61.50
74542;BME280;63015;45.378;20.360;2023-04-03T07:56:10;100621.94;;;8.43;62.20
74542;BME280;63015;45.378;20.360;2023-04-03T07:58:12;100623.50;;;8.29;61.86
74542;BME280;63015;45.378;20.360;2023-04-03T08:00:13;100609.56;;;8.20;62.46
74542;BME280;63015;45.378;20.360;2023-04-03T08:02:15;100616.44;;;8.17;62.31
74542;BME280;63015;45.378;20.360;2023-04-03T08:04:15;100613.88;;;8.18;61.99
74542;BME280;63015;45.378;20.360;2023-04-03T08:06:16;100613.09;;;8.27;61.79
74542;BME280;63015;45.378;20.360;2023-04-03T08:08:19;100611.28;;;8.21;61.85
74542;BME280;63015;45.378;20.360;2023-04-03T08:10:20;100604.75;;;8.51;61.87
74542;BME280;63015;45.378;20.360;2023-04-03T08:12:21;100607.28;;;8.48;61.27
74542;BME280;63015;45.378;20.360;2023-04-03T08:14:21;100616.22;;;8.75;61.64
74542;BME280;63015;45.378;20.360;2023-04-03T08:16:23;100616.94;;;8.59;60.21
74542;BME280;63015;45.378;20.360;2023-04-03T08:18:27;100611.63;;;8.46;60.71
74542;BME280;63015;45.378;20.360;2023-04-03T08:20:28;100622.13;;;8.59;61.09
74542;BME280;63015;45.378;20.360;2023-04-03T08:22:29;100617.91;;;8.71;59.75
74542;BME280;63015;45.378;20.360;2023-04-03T08:24:30;100611.66;;;8.52;60.68
74542;BME280;63015;45.378;20.360;2023-04-03T08:26:30;100610.94;;;8.66;61.25
74542;BME280;63015;45.378;20.360;2023-04-03T08:28:31;100608.50;;;8.83;61.35
74542;BME280;63015;45.378;20.360;2023-04-03T08:30:31;100609.41;;;8.88;60.52
74542;BME280;63015;45.378;20.360;2023-04-03T08:32:33;100606.88;;;8.94;60.42
74542;BME280;63015;45.378;20.360;2023-04-03T08:34:34;100609.28;;;8.74;60.64
74542;BME280;63015;45.378;20.360;2023-04-03T08:36:37;100608.66;;;9.00;60.66
74542;BME280;63015;45.378;20.360;2023-04-03T08:38:37;100617.34;;;9.00;59.52
74542;BME280;63015;45.378;20.360;2023-04-03T08:40:39;100618.88;;;8.80;59.93
74542;BME280;63015;45.378;20.360;2023-04-03T08:45:08;100608.38;;;8.69;60.08
74542;BME280;63015;45.378;20.360;2023-04-03T08:49:45;100615.41;;;8.81;59.86
74542;BME280;63015;45.378;20.360;2023-04-03T08:51:52;100614.81;;;9.10;59.63
74542;BME280;63015;45.378;20.360;2023-04-03T08:54:04;100613.06;;;9.09;58.93
74542;BME280;63015;45.378;20.360;2023-04-03T08:56:07;100612.38;;;9.33;58.65
74542;BME280;63015;45.378;20.360;2023-04-03T08:58:24;100609.88;;;9.48;57.94
74542;BME280;63015;45.378;20.360;2023-04-03T09:00:30;100605.50;;;9.43;58.52
74542;BME280;63015;45.378;20.360;2023-04-03T09:02:44;100611.63;;;9.49;57.85
74542;BME280;63015;45.378;20.360;2023-04-03T09:04:46;100607.03;;;9.13;57.92
74542;BME280;63015;45.378;20.360;2023-04-03T09:06:53;100603.03;;;9.64;57.67
74542;BME280;63015;45.378;20.360;2023-04-03T09:11:51;100605.78;;;9.91;57.45
74542;BME280;63015;45.378;20.360;2023-04-03T09:15:48;100598.84;;;9.88;55.53
74542;BME280;63015;45.378;20.360;2023-04-03T09:17:54;100597.97;;;9.97;55.20
74542;BME280;63015;45.378;20.360;2023-04-03T09:22:20;100605.94;;;10.29;55.34
74542;BME280;63015;45.378;20.360;2023-04-03T09:24:24;100598.88;;;9.96;55.37
74542;BME280;63015;45.378;20.360;2023-04-03T09:28:39;100603.13;;;9.81;55.38
74542;BME280;63015;45.378;20.360;2023-04-03T09:30:40;100598.09;;;10.25;55.32
74542;BME280;63015;45.378;20.360;2023-04-03T09:32:43;100599.06;;;10.42;54.73
74542;BME280;63015;45.378;20.360;2023-04-03T09:34:44;100608.56;;;10.29;54.14
74542;BME280;63015;45.378;20.360;2023-04-03T09:36:54;100606.81;;;10.28;54.23
74542;BME280;63015;45.378;20.360;2023-04-03T09:39:05;100613.63;;;10.00;55.66
74542;BME280;63015;45.378;20.360;2023-04-03T09:41:14;100610.34;;;10.44;55.42
74542;BME280;63015;45.378;20.360;2023-04-03T09:43:21;100610.34;;;10.46;54.71
74542;BME280;63015;45.378;20.360;2023-04-03T09:45:25;100597.34;;;10.57;55.20
74542;BME280;63015;45.378;20.360;2023-04-03T09:47:29;100600.81;;;10.52;55.60
74542;BME280;63015;45.378;20.360;2023-04-03T09:49:30;100602.53;;;10.46;55.17
74542;BME280;63015;45.378;20.360;2023-04-03T09:51:31;100607.81;;;10.88;55.05
74542;BME280;63015;45.378;20.360;2023-04-03T09:53:40;100610.31;;;10.38;54.82
74542;BME280;63015;45.378;20.360;2023-04-03T09:55:43;100613.91;;;10.66;55.33
74542;BME280;63015;45.378;20.360;2023-04-03T09:57:45;100619.97;;;10.72;55.43
74542;BME280;63015;45.378;20.360;2023-04-03T09:59:56;100612.91;;;10.35;55.51
74542;BME280;63015;45.378;20.360;2023-04-03T10:02:14;100605.06;;;10.29;55.88
74542;BME280;63015;45.378;20.360;2023-04-03T10:04:19;100608.50;;;10.17;55.91
74542;BME280;63015;45.378;20.360;2023-04-03T10:06:23;100605.06;;;10.27;56.16
74542;BME280;63015;45.378;20.360;2023-04-03T10:08:26;100599.09;;;10.59;55.77
74542;BME280;63015;45.378;20.360;2023-04-03T10:10:27;100608.59;;;10.42;54.17
74542;BME280;63015;45.378;20.360;2023-04-03T10:12:27;100614.75;;;10.65;54.79
74542;BME280;63015;45.378;20.360;2023-04-03T10:14:29;100610.38;;;10.50;53.80
74542;BME280;63015;45.378;20.360;2023-04-03T10:16:41;100610.41;;;10.74;54.14
74542;BME280;63015;45.378;20.360;2023-04-03T10:20:51;100602.44;;;10.19;55.86
74542;BME280;63015;45.378;20.360;2023-04-03T10:25:16;100598.94;;;10.11;55.79
74542;BME280;63015;45.378;20.360;2023-04-03T10:27:25;100587.69;;;10.22;55.02
74542;BME280;63015;45.378;20.360;2023-04-03T10:29:45;100586.81;;;10.19;55.15
74542;BME280;63015;45.378;20.360;2023-04-03T10:40:55;100563.50;;;10.80;53.27
74542;BME280;63015;45.378;20.360;2023-04-03T10:43:30;100553.06;;;11.03;51.86
74542;BME280;63015;45.378;20.360;2023-04-03T10:52:26;100549.44;;;11.72;51.55
74542;BME280;63015;45.378;20.360;2023-04-03T10:54:39;100556.53;;;11.14;52.39
74542;BME280;63015;45.378;20.360;2023-04-03T10:56:48;100568.69;;;11.34;53.16
74542;BME280;63015;45.378;20.360;2023-04-03T10:58:54;100565.22;;;11.23;52.30
74542;BME280;63015;45.378;20.360;2023-04-03T11:01:06;100549.53;;;11.49;52.46
74542;BME280;63015;45.378;20.360;2023-04-03T11:03:15;100554.75;;;11.44;52.53
74542;BME280;63015;45.378;20.360;2023-04-03T11:07:31;100551.06;;;12.03;51.20
74542;BME280;63015;45.378;20.360;2023-04-03T11:09:35;100550.06;;;12.28;51.13
74542;BME280;63015;45.378;20.360;2023-04-03T11:11:39;100546.25;;;12.77;49.73
74542;BME280;63015;45.378;20.360;2023-04-03T11:13:46;100540.25;;;12.64;51.18
74542;BME280;63015;45.378;20.360;2023-04-03T11:15:53;100543.06;;;12.37;49.06
74542;BME280;63015;45.378;20.360;2023-04-03T11:22:05;100538.50;;;12.63;49.87
74542;BME280;63015;45.378;20.360;2023-04-03T11:24:20;100525.44;;;12.65;50.46
74542;BME280;63015;45.378;20.360;2023-04-03T11:26:26;100531.28;;;12.95;50.63
74542;BME280;63015;45.378;20.360;2023-04-03T11:28:28;100525.81;;;13.20;50.85